createdAt,value
2023-05-30T00:00:50.489Z,100789.55
2023-05-30T00:06:06.724Z,100789.55
2023-05-30T00:11:10.934Z,100787.09
2023-05-30T00:16:15.376Z,100788.70
2023-05-30T00:21:19.108Z,100786.00
2023-05-30T00:26:22.119Z,100791.09
2023-05-30T00:31:25.286Z,100796.96
2023-05-30T00:36:28.336Z,100788.55
2023-05-30T00:41:31.303Z,100788.11
2023-05-30T00:46:34.216Z,100783.61
2023-05-30T00:51:37.444Z,100784.20
2023-05-30T00:56:40.298Z,100784.98
2023-05-30T01:01:44.606Z,100780.43
2023-05-30T01:06:47.943Z,100773.64
2023-05-30T01:12:06.062Z,100773.47
2023-05-30T01:17:19.452Z,100782.64
2023-05-30T01:22:34.376Z,100780.66
2023-05-30T01:28:06.072Z,100791.30
2023-05-30T01:33:10.003Z,100796.88
2023-05-30T01:38:14.002Z,100794.82
2023-05-30T01:43:50.440Z,100800.77
2023-05-30T01:49:18.301Z,100802.25
2023-05-30T01:54:22.849Z,100805.70
2023-05-30T01:59:27.383Z,100809.88
2023-05-30T02:04:31.623Z,100805.92
2023-05-30T02:09:34.417Z,100811.59
2023-05-30T02:14:37.650Z,100806.02
2023-05-30T02:19:40.697Z,100805.67
2023-05-30T02:24:43.482Z,100807.13
2023-05-30T02:29:46.211Z,100802.77
2023-05-30T02:34:49.185Z,100810.56
2023-05-30T02:39:51.905Z,100807.95
2023-05-30T02:44:54.745Z,100815.70
2023-05-30T02:49:57.596Z,100815.44
2023-05-30T02:55:00.381Z,100821.56
2023-05-30T03:00:03.718Z,100824.89
2023-05-30T03:05:07.367Z,100833.05
2023-05-30T03:10:10.583Z,100844.45
2023-05-30T03:15:13.513Z,100853.58
2023-05-30T03:20:17.335Z,100848.64
2023-05-30T03:25:21.351Z,100851.14
2023-05-30T03:30:27.819Z,100853.78
2023-05-30T03:35:31.055Z,100857.59
2023-05-30T03:40:34.687Z,100860.94
2023-05-30T03:45:37.417Z,100865.27
2023-05-30T03:50:40.134Z,100868.77
2023-05-30T03:55:42.894Z,100871.52
2023-05-30T04:00:45.639Z,100873.55
2023-05-30T04:05:50.546Z,100879.27
2023-05-30T04:10:53.805Z,100880.39
2023-05-30T04:15:56.605Z,100878.35
2023-05-30T04:20:59.953Z,100885.55
2023-05-30T04:26:02.987Z,100883.88
2023-05-30T04:31:20.220Z,100891.64
2023-05-30T04:36:24.324Z,100888.76
2023-05-30T04:41:27.269Z,100890.95
2023-05-30T04:46:30.906Z,100895.66
2023-05-30T04:51:34.221Z,100891.48
2023-05-30T04:56:37.111Z,100896.89
2023-05-30T05:01:42.585Z,100904.45
2023-05-30T05:06:45.507Z,100909.61
2023-05-30T05:11:48.471Z,100915.80
2023-05-30T05:16:51.222Z,100920.25
2023-05-30T05:21:57.266Z,100925.52
2023-05-30T05:27:00.172Z,100928.79
2023-05-30T05:32:03.150Z,100934.83
2023-05-30T05:37:06.797Z,100940.69
2023-05-30T05:42:09.624Z,100938.96
2023-05-30T05:47:12.433Z,100942.34
2023-05-30T05:52:15.214Z,100942.59
2023-05-30T05:57:17.983Z,100947.02
2023-05-30T06:02:20.776Z,100947.79
2023-05-30T06:07:24.629Z,100948.35
2023-05-30T06:12:27.633Z,100944.71
2023-05-30T06:17:31.228Z,100944.52
2023-05-30T06:22:36.582Z,100940.33
2023-05-30T06:27:39.384Z,100942.92
2023-05-30T06:32:43.997Z,100944.86
2023-05-30T06:37:47.015Z,100942.91
2023-05-30T06:42:49.880Z,100944.96
2023-05-30T06:47:52.738Z,100941.54
2023-05-30T06:52:55.875Z,100945.37
2023-05-30T06:57:58.700Z,100948.48
2023-05-30T07:03:02.296Z,100949.63
2023-05-30T07:08:05.420Z,100941.13
2023-05-30T07:13:08.320Z,100944.28
2023-05-30T07:18:11.223Z,100947.02
2023-05-30T07:23:14.079Z,100948.26
2023-05-30T07:28:18.409Z,100947.83
2023-05-30T07:33:21.464Z,100949.84
2023-05-30T07:38:24.225Z,100940.23
2023-05-30T07:43:29.489Z,100934.67
2023-05-30T07:48:33.105Z,100930.20
2023-05-30T07:53:36.007Z,100934.51
2023-05-30T07:58:38.752Z,100933.89
2023-05-30T08:03:41.741Z,100931.83
2023-05-30T08:08:44.899Z,100931.91
2023-05-30T08:13:48.892Z,100935.75
2023-05-30T08:18:52.512Z,100941.99
2023-05-30T08:23:56.591Z,100947.61
2023-05-30T08:29:01.061Z,100949.48
2023-05-30T08:34:05.101Z,100950.70
2023-05-30T08:39:14.933Z,100953.31
2023-05-30T08:44:18.146Z,100952.79
2023-05-30T08:49:26.036Z,100956.64
2023-05-30T08:59:42.986Z,100959.87
2023-05-30T09:04:47.178Z,100966.30
2023-05-30T09:09:52.347Z,100964.60
2023-05-30T09:14:55.168Z,100966.89
2023-05-30T09:19:58.282Z,100962.92
2023-05-30T09:25:05.068Z,100975.01
2023-05-30T09:30:11.802Z,100978.64
2023-05-30T09:35:14.869Z,100984.35
2023-05-30T09:40:18.189Z,100980.12
2023-05-30T09:45:25.679Z,100982.12
2023-05-30T09:50:31.851Z,100982.16
2023-05-30T09:55:34.605Z,100982.71
2023-05-30T10:00:37.451Z,100979.44
2023-05-30T10:05:40.368Z,100981.13
2023-05-30T10:10:52.761Z,100980.50
2023-05-30T10:15:55.992Z,100979.04
2023-05-30T10:21:01.519Z,100977.66
2023-05-30T10:26:06.426Z,100975.36
2023-05-30T10:31:12.826Z,100980.41
2023-05-30T10:36:21.270Z,100977.66
2023-05-30T10:41:36.318Z,100970.77
2023-05-30T10:47:19.315Z,100971.36
2023-05-30T10:52:32.715Z,100979.38
2023-05-30T10:57:36.286Z,100977.36
2023-05-30T11:02:40.240Z,100976.03
2023-05-30T11:07:44.532Z,100970.68
2023-05-30T11:12:49.304Z,100972.91
2023-05-30T11:17:53.652Z,100967.05
2023-05-30T11:23:03.333Z,100965.40
2023-05-30T11:28:07.308Z,100968.88
2023-05-30T11:33:19.238Z,100968.33
2023-05-30T11:39:33.064Z,100975.73
2023-05-30T11:44:37.462Z,100974.37
2023-05-30T11:49:42.700Z,100983.08
2023-05-30T11:54:48.384Z,100980.77
2023-05-30T11:59:51.316Z,100977.60
2023-05-30T12:05:02.406Z,100983.88
2023-05-30T12:10:06.022Z,100988.29
2023-05-30T12:15:10.336Z,100991.80
2023-05-30T12:20:18.436Z,100985.36
2023-05-30T12:25:28.567Z,100982.42
2023-05-30T12:30:36.011Z,100983.25
2023-05-30T12:35:40.855Z,100979.64
2023-05-30T12:40:52.083Z,100977.48
2023-05-30T12:46:10.349Z,100983.20
2023-05-30T12:51:15.994Z,100987.98
2023-05-30T12:56:24.361Z,100986.79
2023-05-30T13:01:31.280Z,100982.00
2023-05-30T13:06:34.075Z,100987.71
2023-05-30T13:11:37.010Z,100991.64
2023-05-30T13:16:40.172Z,100989.38
2023-05-30T13:21:44.830Z,100986.56
2023-05-30T13:26:47.678Z,100993.56
2023-05-30T13:31:50.640Z,100992.64
2023-05-30T13:36:53.742Z,100995.25
2023-05-30T13:41:56.774Z,100998.14
2023-05-30T13:46:59.639Z,100999.73
2023-05-30T13:52:05.200Z,100996.60
2023-05-30T13:57:08.962Z,101007.20
2023-05-30T14:02:11.777Z,100998.90
2023-05-30T14:07:15.838Z,100991.66
2023-05-30T14:12:18.784Z,100998.25
2023-05-30T14:17:21.552Z,100997.52
2023-05-30T14:22:24.277Z,101000.76
2023-05-30T14:27:27.041Z,101003.51
2023-05-30T14:32:30.314Z,101007.89
2023-05-30T14:37:33.054Z,101008.85
2023-05-30T14:42:36.176Z,101009.73
2023-05-30T14:47:38.984Z,101015.47
2023-05-30T14:52:41.731Z,101018.23
2023-05-30T14:57:44.487Z,101017.32
2023-05-30T15:02:47.348Z,101020.35
2023-05-30T15:07:51.243Z,101019.99
2023-05-30T15:12:54.072Z,101019.11
2023-05-30T15:17:57.227Z,101012.65
2023-05-30T15:23:00.022Z,101023.23
2023-05-30T15:28:03.181Z,101018.43
2023-05-30T15:33:06.094Z,101018.13
2023-05-30T15:38:08.992Z,101019.66
2023-05-30T15:43:12.323Z,101022.44
2023-05-30T15:48:15.234Z,101023.55
2023-05-30T15:53:17.939Z,101029.58
2023-05-30T15:58:20.945Z,101031.06
2023-05-30T16:03:23.718Z,101032.30
2023-05-30T16:08:26.534Z,101037.88
2023-05-30T16:13:29.294Z,101038.45
2023-05-30T16:18:32.067Z,101040.88
2023-05-30T16:23:35.038Z,101044.81
2023-05-30T16:28:37.819Z,101040.86
2023-05-30T16:33:40.612Z,101045.17
2023-05-30T16:38:43.409Z,101051.62
2023-05-30T16:43:48.035Z,101054.05
2023-05-30T16:48:50.853Z,101058.95
2023-05-30T16:53:56.272Z,101056.94
2023-05-30T16:59:00.540Z,101062.35
2023-05-30T17:04:03.677Z,101066.65
2023-05-30T17:09:10.154Z,101071.88
2023-05-30T17:14:14.691Z,101070.23
2023-05-30T17:19:28.528Z,101076.49
2023-05-30T17:24:32.179Z,101078.80
2023-05-30T17:29:37.116Z,101077.09
2023-05-30T17:34:39.901Z,101084.82
2023-05-30T17:39:42.807Z,101090.00
2023-05-30T17:44:45.571Z,101091.44
2023-05-30T17:49:48.303Z,101096.59
2023-05-30T17:54:53.713Z,101102.26
2023-05-30T17:59:57.138Z,101103.71
2023-05-30T18:05:03.066Z,101107.63
2023-05-30T18:10:06.183Z,101111.42
2023-05-30T18:15:10.286Z,101110.85
2023-05-30T18:20:13.521Z,101115.82
2023-05-30T18:25:16.344Z,101114.71
2023-05-30T18:30:19.096Z,101118.92
2023-05-30T18:35:21.955Z,101123.66
2023-05-30T18:40:24.972Z,101123.69
2023-05-30T18:45:27.791Z,101133.82
2023-05-30T18:50:30.793Z,101138.92
2023-05-30T18:55:33.754Z,101140.16
2023-05-30T19:00:36.497Z,101141.64
2023-05-30T19:05:40.236Z,101148.07
2023-05-30T19:10:43.259Z,101150.73
2023-05-30T19:15:46.118Z,101154.22
2023-05-30T19:20:50.685Z,101160.35
2023-05-30T19:25:54.483Z,101166.58
2023-05-30T19:30:57.196Z,101172.69
2023-05-30T19:36:00.181Z,101177.95
2023-05-30T19:41:03.983Z,101182.05
2023-05-30T19:46:08.534Z,101185.05
2023-05-30T19:51:11.613Z,101186.15
2023-05-30T19:56:14.389Z,101189.04
2023-05-30T20:01:17.328Z,101196.41
2023-05-30T20:06:20.739Z,101196.50
2023-05-30T20:11:23.537Z,101193.13
2023-05-30T20:16:26.502Z,101194.41
2023-05-30T20:21:29.566Z,101201.19
2023-05-30T20:26:33.201Z,101198.77
2023-05-30T20:31:36.289Z,101208.91
2023-05-30T20:36:39.135Z,101206.59
2023-05-30T20:41:41.981Z,101205.80
2023-05-30T20:46:45.230Z,101211.36
2023-05-30T20:51:48.236Z,101210.11
2023-05-30T20:56:51.097Z,101213.79
2023-05-30T21:01:53.918Z,101212.55
2023-05-30T21:06:56.782Z,101213.83
2023-05-30T21:11:59.551Z,101212.95
2023-05-30T21:17:02.435Z,101217.58
2023-05-30T21:22:05.809Z,101209.11
2023-05-30T21:27:08.607Z,101211.99
2023-05-30T21:32:11.466Z,101218.61
2023-05-30T21:37:14.333Z,101223.45
2023-05-30T21:42:17.173Z,101225.98
2023-05-30T21:47:19.904Z,101230.55
2023-05-30T21:52:27.201Z,101228.89
2023-05-30T21:57:30.331Z,101233.32
2023-05-30T22:02:33.105Z,101237.42
2023-05-30T22:07:35.950Z,101234.83
2023-05-30T22:12:38.829Z,101234.01
2023-05-30T22:17:41.597Z,101229.86
2023-05-30T22:22:44.684Z,101228.58
2023-05-30T22:27:47.609Z,101227.77
2023-05-30T22:32:50.643Z,101228.89
2023-05-30T22:37:53.439Z,101235.48
2023-05-30T22:42:56.410Z,101230.52
2023-05-30T22:47:59.484Z,101234.08
2023-05-30T22:53:02.369Z,101237.34
2023-05-30T22:58:05.127Z,101237.32
2023-05-30T23:03:13.106Z,101240.74
2023-05-30T23:08:16.088Z,101240.64
2023-05-30T23:13:20.119Z,101236.93
2023-05-30T23:18:22.849Z,101237.23
2023-05-30T23:23:25.661Z,101235.59
2023-05-30T23:28:28.488Z,101232.51
2023-05-30T23:33:31.746Z,101240.92
2023-05-30T23:38:34.574Z,101237.59
2023-05-30T23:43:38.255Z,101235.70
2023-05-30T23:48:41.084Z,101240.25
2023-05-30T23:53:44.539Z,101240.40
2023-05-30T23:58:47.340Z,101249.13
